Time;durP1;ratioP1;P1;durP2;ratioP2;P2;SDS_P1;SDS_P2;PMS_P1;PMS_P2;Temp;Humidity;BMP_temperature;BMP_pressure;BME280_temperature;BME280_humidity;BME280_pressure;Samples;Min_cycle;Max_cycle;Signal;HPM_P1;HPM_P2
2021/10/31 00:00:52;;;;;;;4.70;3.40;;;;;;;8.44;92.05;100661.91;5071723;28;20765;-66
2021/10/31 00:03:18;;;;;;;7.17;4.17;;;;;;;8.40;92.05;100655.22;5071666;28;20025;-65
2021/10/31 00:05:44;;;;;;;6.97;4.00;;;;;;;8.36;92.21;100662.63;5071357;28;20137;-66
2021/10/31 00:08:09;;;;;;;7.35;4.10;;;;;;;8.33;92.42;100656.78;5071101;28;20066;-65
2021/10/31 00:10:35;;;;;;;7.30;4.83;;;;;;;8.36;92.65;100659.97;5071342;28;20035;-71
2021/10/31 00:13:00;;;;;;;7.68;4.13;;;;;;;8.36;92.58;100656.47;5071528;28;20021;-66
2021/10/31 00:15:26;;;;;;;10.30;4.60;;;;;;;8.35;92.64;100658.28;5071508;28;20094;-65
2021/10/31 00:17:51;;;;;;;7.00;4.30;;;;;;;8.35;92.93;100654.78;5071462;28;20048;-66
2021/10/31 00:20:17;;;;;;;8.60;4.38;;;;;;;8.35;92.64;100668.91;5069895;28;20499;-65
2021/10/31 00:22:44;;;;;;;11.10;4.40;;;;;;;8.29;92.66;100672.97;5071362;28;20494;-66
2021/10/31 00:25:10;;;;;;;12.27;5.30;;;;;;;8.33;92.89;100675.34;5071236;28;20027;-66
2021/10/31 00:27:36;;;;;;;7.20;4.22;;;;;;;8.39;92.63;100674.78;5070960;28;20494;-65
2021/10/31 00:30:03;;;;;;;6.10;4.00;;;;;;;8.34;92.71;100671.69;5071039;28;20107;-65
2021/10/31 00:32:28;;;;;;;;;;;;;;;8.30;92.73;100682.63;5070074;28;20425;-66
2021/10/31 00:34:53;;;;;;;5.03;3.13;;;;;;;8.29;92.55;100683.59;5071044;28;19912;-65
2021/10/31 00:37:18;;;;;;;5.23;3.97;;;;;;;8.25;92.60;100679.53;5070816;28;20101;-65
2021/10/31 00:39:44;;;;;;;9.07;4.37;;;;;;;8.33;92.86;100680.66;5070888;28;20101;-66
2021/10/31 00:42:09;;;;;;;8.15;4.22;;;;;;;8.36;92.84;100675.06;5071185;28;20070;-65
2021/10/31 00:44:35;;;;;;;6.80;3.73;;;;;;;8.34;92.75;100684.97;5071120;28;20184;-65
2021/10/31 00:47:00;;;;;;;8.83;4.07;;;;;;;8.35;92.77;100682.19;5070852;28;20032;-65
2021/10/31 00:49:25;;;;;;;9.07;4.37;;;;;;;8.35;92.63;100684.81;5070892;28;20498;-65
2021/10/31 00:51:52;;;;;;;5.33;3.90;;;;;;;8.41;92.78;100686.09;5070694;28;20028;-65
2021/10/31 00:54:17;;;;;;;5.15;4.07;;;;;;;8.46;92.71;100686.56;5070723;28;20059;-67
2021/10/31 00:56:43;;;;;;;7.85;4.07;;;;;;;8.44;92.64;100694.63;5070703;28;20075;-66
2021/10/31 00:59:08;;;;;;;6.63;3.50;;;;;;;8.45;92.55;100698.97;5070821;28;20032;-65
2021/10/31 01:01:34;;;;;;;5.90;3.67;;;;;;;8.42;92.49;100693.94;5070762;28;20021;-65
2021/10/31 01:03:59;;;;;;;5.15;3.17;;;;;;;8.35;92.58;100695.44;5070510;28;20081;-65
2021/10/31 01:06:34;;;;;;;5.78;3.60;;;;;;;8.34;92.54;100699.09;5070297;28;20025;-66
2021/10/31 01:09:14;;;;;;;6.97;3.70;;;;;;;8.38;92.59;100700.50;5077606;23;20055;-66
2021/10/31 01:12:10;;;;;;;8.35;5.00;;;;;;;8.38;92.55;100697.84;5070733;28;20115;-66
2021/10/31 01:14:46;;;;;;;7.85;3.88;;;;;;;8.37;92.47;100692.69;5070291;28;20139;-66
2021/10/31 01:17:50;;;;;;;11.05;3.90;;;;;;;8.38;92.47;100691.69;5070599;28;20033;-70
2021/10/31 01:20:25;;;;;;;6.90;3.35;;;;;;;8.37;92.47;100682.88;5070443;28;20024;-66
2021/10/31 01:23:20;;;;;;;8.32;3.90;;;;;;;8.33;92.42;100680.66;5070412;28;20472;-66
2021/10/31 01:25:58;;;;;;;6.10;3.93;;;;;;;8.35;92.31;100666.25;5070428;28;20068;-66
2021/10/31 01:28:58;;;;;;;6.63;3.40;;;;;;;8.39;92.63;100667.66;5070590;28;20039;-65
2021/10/31 01:31:44;;;;;;;9.20;3.60;;;;;;;8.45;92.44;100676.88;5070489;28;20020;-65
2021/10/31 01:34:47;;;;;;;5.13;3.40;;;;;;;8.40;92.18;100687.91;5070474;28;20033;-65
2021/10/31 01:37:48;;;;;;;6.32;3.22;;;;;;;8.31;92.24;100684.28;5070125;28;20028;-65
2021/10/31 01:40:32;;;;;;;5.50;3.53;;;;;;;8.27;92.67;100679.41;5070394;28;20044;-66
2021/10/31 01:43:01;;;;;;;7.80;3.73;;;;;;;8.20;92.05;100686.25;5070413;28;20442;-65
2021/10/31 01:45:38;;;;;;;5.97;3.70;;;;;;;8.14;92.15;100687.63;5070508;28;20044;-65
2021/10/31 01:48:21;;;;;;;4.93;3.63;;;;;;;8.12;92.26;100681.63;5070228;28;20028;-65
2021/10/31 01:50:48;;;;;;;6.83;3.77;;;;;;;8.14;92.43;100683.19;5070309;28;20214;-65
2021/10/31 01:53:54;;;;;;;8.33;4.07;;;;;;;8.16;92.63;100688.34;5070164;28;20028;-65
2021/10/31 01:56:22;;;;;;;8.43;4.30;;;;;;;8.19;92.73;100682.75;5070200;28;20170;-66
2021/10/31 01:59:22;;;;;;;5.78;3.70;;;;;;;8.16;92.67;100676.91;5070213;28;20039;-65
2021/10/31 02:01:50;;;;;;;8.07;3.80;;;;;;;8.14;92.65;100682.31;5050059;28;20032;-65
2021/10/31 02:04:18;;;;;;;6.50;3.77;;;;;;;8.15;92.59;100681.34;5070209;28;20021;-65
2021/10/31 02:06:47;;;;;;;8.05;4.07;;;;;;;8.17;92.72;100678.56;5069876;28;20041;-66
2021/10/31 02:09:16;;;;;;;6.53;3.63;;;;;;;8.15;92.67;100678.69;5070002;28;20040;-65
2021/10/31 02:11:43;;;;;;;6.83;3.83;;;;;;;8.19;92.68;100684.56;5070011;28;20082;-65
2021/10/31 02:14:09;;;;;;;4.53;4.03;;;;;;;8.20;92.54;100687.09;5069934;28;20086;-65
2021/10/31 02:16:36;;;;;;;7.30;3.78;;;;;;;8.24;92.43;100685.00;5070061;28;20103;-65
2021/10/31 02:19:05;;;;;;;6.17;3.47;;;;;;;8.25;92.31;100678.72;5070142;28;20399;-65
2021/10/31 02:21:35;;;;;;;7.73;3.73;;;;;;;8.26;92.47;100675.06;5070080;28;20025;-65
2021/10/31 02:24:02;;;;;;;5.30;3.33;;;;;;;8.27;92.29;100684.69;5069859;28;20361;-64
2021/10/31 02:26:28;;;;;;;5.80;3.80;;;;;;;8.28;92.14;100689.88;5071418;28;20020;-66
2021/10/31 02:28:55;;;;;;;7.30;3.50;;;;;;;8.27;92.45;100688.22;5073432;28;20027;-65
2021/10/31 02:31:21;;;;;;;11.33;4.33;;;;;;;8.28;92.07;100679.25;5073641;28;20028;-66
2021/10/31 02:33:47;;;;;;;9.48;3.42;;;;;;;8.25;92.10;100679.53;5073520;28;20037;-65
2021/10/31 02:36:12;;;;;;;5.27;3.57;;;;;;;8.21;92.20;100682.59;5073583;28;20541;-65
2021/10/31 02:38:38;;;;;;;4.07;3.10;;;;;;;8.20;91.96;100683.59;5072958;28;20032;-65
2021/10/31 02:41:03;;;;;;;5.03;2.93;;;;;;;8.21;92.03;100690.56;5073391;28;20439;-65
2021/10/31 02:43:28;;;;;;;6.83;3.03;;;;;;;8.26;91.98;100683.88;5073284;28;20150;-65
2021/10/31 02:45:53;;;;;;;5.03;2.80;;;;;;;8.25;91.90;100679.53;5072996;28;20590;-65
2021/10/31 02:48:20;;;;;;;9.00;3.23;;;;;;;8.24;92.02;100677.84;5073245;28;20028;-65
2021/10/31 02:50:46;;;;;;;5.10;3.23;;;;;;;8.25;91.73;100684.03;5073013;28;20078;-69
2021/10/31 02:53:17;;;;;;;5.10;3.03;;;;;;;8.27;91.61;100679.41;5073063;28;20020;-65
2021/10/31 02:55:43;;;;;;;4.47;3.20;;;;;;;8.26;91.91;100677.72;5073049;28;20037;-66
2021/10/31 02:58:39;;;;;;;6.87;3.00;;;;;;;8.27;91.65;100668.78;5073027;28;20020;-65
2021/10/31 03:01:06;;;;;;;5.17;3.30;;;;;;;8.27;91.76;100671.44;5061853;28;20040;-66
2021/10/31 03:03:33;;;;;;;5.40;3.37;;;;;;;8.27;91.68;100671.44;5073008;28;20082;-70
2021/10/31 03:06:00;;;;;;;5.93;3.33;;;;;;;8.27;91.75;100669.63;5072813;28;20391;-65
2021/10/31 03:08:27;;;;;;;6.20;3.40;;;;;;;8.25;91.88;100666.25;5072114;28;20557;-68
2021/10/31 03:10:59;;;;;;;6.93;3.43;;;;;;;8.27;91.76;100663.47;5072630;28;20082;-66
2021/10/31 03:13:26;;;;;;;4.60;3.40;;;;;;;8.23;91.54;100668.22;5072509;28;20437;-66
2021/10/31 03:15:52;;;;;;;5.87;4.37;;;;;;;8.22;91.84;100669.22;5072614;28;20020;-65
2021/10/31 03:18:18;;;;;;;7.85;3.63;;;;;;;8.19;91.59;100661.50;5072872;28;20016;-66
2021/10/31 03:20:44;;;;;;;5.05;4.05;;;;;;;8.20;91.60;100660.53;5072304;28;20532;-67
2021/10/31 03:23:09;;;;;;;5.18;3.72;;;;;;;8.19;91.73;100661.50;5072416;28;20283;-68
2021/10/31 03:25:35;;;;;;;6.77;4.00;;;;;;;8.18;91.77;100657.19;5072425;28;20025;-66
2021/10/31 03:28:00;;;;;;;5.13;3.60;;;;;;;8.16;91.55;100656.50;5072371;28;20029;-66
2021/10/31 03:30:26;;;;;;;4.93;3.90;;;;;;;8.08;91.68;100645.75;5072153;28;20017;-66
2021/10/31 03:32:51;;;;;;;7.32;4.35;;;;;;;8.04;91.85;100641.69;5072369;28;20016;-66
2021/10/31 03:35:18;;;;;;;5.93;3.67;;;;;;;8.06;91.98;100645.03;5072199;28;20139;-67
2021/10/31 03:37:43;;;;;;;6.60;4.03;;;;;;;8.10;91.88;100649.06;5071797;28;20544;-66
2021/10/31 03:40:10;;;;;;;4.57;3.65;;;;;;;8.13;91.64;100640.84;5072149;28;20033;-66
2021/10/31 03:42:36;;;;;;;4.93;4.07;;;;;;;8.15;91.49;100638.88;5071927;28;20036;-65
2021/10/31 03:45:04;;;;;;;4.95;3.65;;;;;;;8.10;91.03;100649.06;5072194;28;20382;-68
2021/10/31 03:47:32;;;;;;;5.53;3.80;;;;;;;8.09;91.49;100645.59;5071817;28;20025;-66
2021/10/31 03:49:58;;;;;;;7.63;4.13;;;;;;;8.07;91.45;100636.91;5071850;28;20103;-66
2021/10/31 03:52:23;;;;;;;5.13;3.67;;;;;;;8.08;91.60;100632.47;5072220;28;20159;-65
2021/10/31 03:54:48;;;;;;;4.70;3.37;;;;;;;8.07;91.43;100633.44;5071654;28;20058;-66
2021/10/31 03:57:14;;;;;;;4.43;3.73;;;;;;;8.06;91.44;100631.75;5070632;28;20029;-65
2021/10/31 03:59:39;;;;;;;5.17;3.53;;;;;;;8.05;91.39;100638.03;5071788;28;20020;-67
2021/10/31 04:02:05;;;;;;;7.63;4.10;;;;;;;8.03;91.34;100632.88;5071705;28;20019;-65
2021/10/31 04:04:31;;;;;;;6.00;3.60;;;;;;;8.03;91.49;100634.72;5071842;28;20125;-66
2021/10/31 04:06:56;;;;;;;5.28;4.15;;;;;;;8.04;91.51;100641.69;5071544;28;20094;-67
2021/10/31 04:09:21;;;;;;;7.50;3.90;;;;;;;8.04;91.44;100645.19;5071269;28;20625;-66
2021/10/31 04:11:47;;;;;;;6.70;4.63;;;;;;;8.01;91.47;100641.97;5071498;28;20034;-66
2021/10/31 04:14:12;;;;;;;7.07;4.47;;;;;;;7.95;91.53;100636.22;5071506;28;20479;-66
2021/10/31 04:16:38;;;;;;;5.97;4.93;;;;;;;7.94;91.61;100639.84;5071666;28;20036;-66
2021/10/31 04:19:03;;;;;;;8.95;4.43;;;;;;;7.91;91.60;100620.75;5071381;28;20435;-65
2021/10/31 04:21:28;;;;;;;7.17;4.57;;;;;;;7.87;91.84;100616.69;5071287;28;20020;-66
2021/10/31 04:23:54;;;;;;;7.03;5.00;;;;;;;7.86;91.90;100620.31;5069938;28;20028;-66
2021/10/31 04:26:19;;;;;;;7.17;4.90;;;;;;;7.84;91.87;100627.56;5071076;28;20028;-66
2021/10/31 04:28:44;;;;;;;10.25;5.55;;;;;;;7.83;92.04;100624.09;5071129;28;20082;-66
2021/10/31 04:31:10;;;;;;;7.13;5.33;;;;;;;7.84;92.02;100628.41;5071427;28;20042;-66
2021/10/31 04:33:36;;;;;;;7.13;5.78;;;;;;;7.82;91.93;100622.41;5071272;28;20086;-66
2021/10/31 04:36:03;;;;;;;9.90;6.15;;;;;;;7.80;91.95;100621.69;5071093;28;20689;-66
2021/10/31 04:38:31;;;;;;;10.47;7.10;;;;;;;7.77;92.11;100619.31;5070813;28;20135;-65
2021/10/31 04:40:56;;;;;;;8.10;7.30;;;;;;;7.73;92.27;100616.09;5070806;28;20025;-65
2021/10/31 04:43:23;;;;;;;11.63;8.40;;;;;;;7.72;92.20;100625.06;5070833;28;20021;-66
2021/10/31 04:45:49;;;;;;;9.93;8.43;;;;;;;7.73;92.12;100626.72;5070831;28;20354;-65
2021/10/31 04:48:15;;;;;;;9.50;8.48;;;;;;;7.72;92.47;100624.19;5068900;28;20036;-66
2021/10/31 04:50:41;;;;;;;12.75;9.32;;;;;;;7.70;92.29;100612.91;5070903;28;20025;-66
2021/10/31 04:53:08;;;;;;;14.95;9.40;;;;;;;7.69;92.31;100619.19;5070869;28;20024;-65
2021/10/31 04:55:37;;;;;;;10.00;8.47;;;;;;;7.69;92.53;100613.88;5070679;28;20028;-65
2021/10/31 04:58:03;;;;;;;13.03;9.30;;;;;;;7.69;92.40;100612.06;5070643;28;20387;-65
2021/10/31 05:00:29;;;;;;;13.55;8.93;;;;;;;7.70;92.24;100610.25;5070906;28;20170;-65
2021/10/31 05:02:55;;;;;;;12.45;8.68;;;;;;;7.71;92.45;100614.56;5070778;28;20024;-66
2021/10/31 05:05:21;;;;;;;11.52;9.20;;;;;;;7.71;92.22;100614.56;5070726;28;20028;-67
2021/10/31 05:07:49;;;;;;;11.30;8.87;;;;;;;7.73;92.23;100604.66;5088521;22;20116;-66
2021/10/31 05:10:16;;;;;;;11.87;8.67;;;;;;;7.73;92.16;100602.84;5090650;28;20135;-65
2021/10/31 05:12:42;;;;;;;11.77;9.57;;;;;;;7.72;91.97;100603.84;5090736;28;20065;-66
2021/10/31 05:15:08;;;;;;;13.27;9.13;;;;;;;7.72;92.08;100600.34;5091037;28;20425;-65
2021/10/31 05:17:34;;;;;;;9.35;7.95;;;;;;;7.71;92.14;100593.34;5091020;28;20020;-65
2021/10/31 05:19:59;;;;;;;10.40;8.38;;;;;;;7.68;91.95;100596.28;5090878;28;20031;-65
2021/10/31 05:22:24;;;;;;;12.20;8.70;;;;;;;7.68;91.61;100589.16;5090614;28;20067;-67
2021/10/31 05:24:50;;;;;;;11.60;8.00;;;;;;;7.69;92.05;100582.88;5090655;28;20038;-65
2021/10/31 05:27:15;;;;;;;14.07;8.57;;;;;;;7.68;92.11;100581.19;5090435;28;20028;-66
2021/10/31 05:29:41;;;;;;;12.68;8.35;;;;;;;7.62;91.95;100582.59;5090497;28;20274;-66
2021/10/31 05:32:06;;;;;;;11.33;8.53;;;;;;;7.58;92.08;100572.41;5090635;28;20536;-65
2021/10/31 05:34:31;;;;;;;11.85;9.30;;;;;;;7.57;92.04;100573.38;5090611;28;20028;-70
2021/10/31 05:36:57;;;;;;;12.77;9.53;;;;;;;7.61;92.31;100562.34;5090531;28;20066;-68
2021/10/31 05:39:22;;;;;;;13.80;9.23;;;;;;;7.61;92.01;100569.47;5090596;28;20226;-65
2021/10/31 05:41:48;;;;;;;12.38;9.52;;;;;;;7.58;92.12;100567.13;5088947;28;20039;-66
2021/10/31 05:44:13;;;;;;;12.40;8.70;;;;;;;7.57;92.18;100563.59;5090585;28;20027;-65
2021/10/31 05:46:38;;;;;;;13.67;9.40;;;;;;;7.55;92.25;100562.06;5090300;28;20157;-65
2021/10/31 05:49:04;;;;;;;13.13;9.77;;;;;;;7.51;92.37;100558.84;5090417;28;20039;-65
2021/10/31 05:51:30;;;;;;;15.55;9.80;;;;;;;7.47;92.15;100549.50;5090520;28;20028;-65
2021/10/31 05:53:56;;;;;;;15.32;9.55;;;;;;;7.49;92.38;100550.22;5090417;28;20035;-65
2021/10/31 05:56:21;;;;;;;12.85;8.90;;;;;;;7.50;92.32;100551.03;5090108;28;20068;-66
2021/10/31 05:58:47;;;;;;;14.97;9.70;;;;;;;7.51;92.62;100548.25;5090294;28;20038;-68
2021/10/31 06:01:12;;;;;;;14.07;9.27;;;;;;;7.53;92.46;100546.31;5093508;28;20031;-71
2021/10/31 06:03:37;;;;;;;11.77;8.60;;;;;;;7.53;92.60;100542.81;5094272;28;20811;-66
2021/10/31 06:06:03;;;;;;;12.23;7.83;;;;;;;7.53;92.55;100542.81;5094452;28;20115;-69
2021/10/31 06:08:28;;;;;;;14.23;9.17;;;;;;;7.54;92.61;100542.69;5093762;28;20058;-66
2021/10/31 06:10:54;;;;;;;13.50;8.67;;;;;;;7.54;92.74;100544.47;5094016;28;20339;-67
2021/10/31 06:13:20;;;;;;;13.10;8.43;;;;;;;7.54;92.65;100545.34;5094033;28;20274;-66
2021/10/31 06:15:47;;;;;;;11.23;8.23;;;;;;;7.54;92.48;100537.38;5093964;28;20356;-65
2021/10/31 06:18:16;;;;;;;13.80;7.93;;;;;;;7.55;92.76;100541.72;5094088;28;20058;-66
2021/10/31 06:20:42;;;;;;;13.53;8.63;;;;;;;7.54;92.57;100541.81;5094180;28;20031;-66
2021/10/31 06:23:07;;;;;;;13.52;7.65;;;;;;;7.56;92.80;100529.28;5093929;28;20024;-70
2021/10/31 06:25:33;;;;;;;10.90;7.20;;;;;;;7.54;92.75;100525.91;5093979;28;20035;-66
2021/10/31 06:27:58;;;;;;;12.23;8.07;;;;;;;7.55;92.59;100527.59;5093549;28;20032;-70
2021/10/31 06:30:23;;;;;;;13.40;7.73;;;;;;;7.54;92.65;100521.47;5093423;28;20395;-68
2021/10/31 06:32:49;;;;;;;10.32;6.88;;;;;;;7.54;92.52;100518.81;5093720;28;20031;-68
2021/10/31 06:35:14;;;;;;;11.77;7.35;;;;;;;7.52;92.37;100511.97;5093702;28;20032;-66
2021/10/31 06:37:40;;;;;;;12.80;7.55;;;;;;;7.52;92.52;100506.69;5093479;28;20383;-67
2021/10/31 06:40:06;;;;;;;13.47;8.03;;;;;;;7.53;92.55;100508.34;5093541;28;20559;-68
2021/10/31 06:42:31;;;;;;;13.52;7.78;;;;;;;7.53;92.70;100506.53;5093126;28;20024;-68
2021/10/31 06:44:56;;;;;;;10.87;7.37;;;;;;;7.61;92.61;100506.66;5093399;28;20020;-68
2021/10/31 06:47:23;;;;;;;13.20;8.00;;;;;;;7.60;92.62;100510.31;5092747;28;20360;-68
2021/10/31 06:49:48;;;;;;;10.60;6.73;;;;;;;7.61;92.50;100505.84;5093192;28;20028;-69
2021/10/31 06:52:14;;;;;;;13.37;7.87;;;;;;;7.62;92.66;100499.56;5093375;28;20020;-69
2021/10/31 06:54:39;;;;;;;11.63;7.23;;;;;;;7.63;92.55;100501.25;5093259;28;20023;-69
2021/10/31 06:57:05;;;;;;;12.02;7.72;;;;;;;7.69;92.84;100491.88;5093071;28;20024;-68
2021/10/31 06:59:32;;;;;;;12.15;7.50;;;;;;;7.70;93.10;100483.78;5093097;28;20043;-69
2021/10/31 07:01:59;;;;;;;11.63;8.50;;;;;;;7.70;92.52;100481.13;5092954;28;20103;-70
2021/10/31 07:04:26;;;;;;;11.13;6.93;;;;;;;7.73;92.65;100466.72;5093099;28;20548;-70
2021/10/31 07:06:52;;;;;;;11.97;7.37;;;;;;;7.78;92.62;100473.28;5092534;28;20521;-69
2021/10/31 07:09:18;;;;;;;11.00;7.22;;;;;;;7.84;92.65;100463.06;5092927;28;20582;-70
2021/10/31 07:11:43;;;;;;;12.02;8.45;;;;;;;7.88;92.51;100453.84;5092195;28;20111;-69
2021/10/31 07:14:10;;;;;;;10.70;7.03;;;;;;;7.92;92.46;100450.78;5092788;28;20025;-69
2021/10/31 07:16:35;;;;;;;10.93;7.05;;;;;;;7.98;92.38;100454.66;5092900;28;20024;-70
2021/10/31 07:19:01;;;;;;;10.27;7.50;;;;;;;8.00;92.45;100455.38;5092939;28;20050;-68
2021/10/31 07:21:27;;;;;;;8.98;6.85;;;;;;;8.06;92.17;100459.25;5092769;28;20032;-68
2021/10/31 07:23:52;;;;;;;9.18;6.88;;;;;;;8.10;92.00;100450.88;5092948;28;20038;-69
2021/10/31 07:26:18;;;;;;;10.37;7.13;;;;;;;8.16;91.90;100444.13;5092784;28;20036;-69
2021/10/31 07:28:43;;;;;;;10.40;6.57;;;;;;;8.22;92.04;100440.91;5092587;28;20568;-68
2021/10/31 07:31:10;;;;;;;9.97;6.87;;;;;;;8.26;91.58;100444.94;5092625;28;20024;-69
2021/10/31 07:33:35;;;;;;;10.13;6.77;;;;;;;8.29;91.41;100454.44;5092348;28;20016;-67
2021/10/31 07:36:01;;;;;;;8.70;7.13;;;;;;;8.34;91.45;100454.84;5091872;28;20391;-67
2021/10/31 07:38:27;;;;;;;7.80;6.43;;;;;;;8.42;91.06;100448.78;5092406;28;20062;-67
2021/10/31 07:40:53;;;;;;;8.93;6.70;;;;;;;8.45;90.97;100459.13;5092323;28;20492;-68
2021/10/31 07:43:18;;;;;;;9.50;6.45;;;;;;;8.52;90.94;100448.75;5092377;28;20031;-67
2021/10/31 07:45:44;;;;;;;9.17;6.43;;;;;;;8.57;90.55;100452.63;5092373;28;20068;-66
2021/10/31 07:48:10;;;;;;;8.75;6.85;;;;;;;8.60;90.31;100454.16;5092189;28;20087;-66
2021/10/31 07:50:36;;;;;;;6.65;5.95;;;;;;;8.67;90.20;100468.53;5092190;28;20020;-67
2021/10/31 07:53:03;;;;;;;8.23;6.15;;;;;;;8.76;90.01;100461.47;5092082;28;20051;-67
2021/10/31 07:55:33;;;;;;;7.88;6.00;;;;;;;8.79;89.40;100461.22;5092150;28;20028;-67
2021/10/31 07:57:59;;;;;;;8.10;6.80;;;;;;;8.84;89.55;100455.44;5092116;28;20035;-66
2021/10/31 08:00:26;;;;;;;8.20;5.80;;;;;;;8.89;89.34;100458.47;5092045;28;20039;-67
2021/10/31 08:02:56;;;;;;;8.50;6.10;;;;;;;8.90;89.45;100444.22;5090454;28;20114;-63
2021/10/31 08:05:23;;;;;;;8.65;6.00;;;;;;;8.94;89.24;100441.13;5092017;28;20020;-66
2021/10/31 08:07:49;;;;;;;6.90;5.57;;;;;;;9.02;88.93;100428.88;5091553;28;20108;-66
2021/10/31 08:10:14;;;;;;;7.53;5.45;;;;;;;9.10;88.85;100435.13;5092019;28;20036;-65
2021/10/31 08:12:39;;;;;;;8.43;6.30;;;;;;;9.11;88.55;100410.22;5090470;28;20020;-66
2021/10/31 08:15:05;;;;;;;6.80;5.37;;;;;;;9.23;88.47;100412.63;5091536;28;20024;-66
2021/10/31 08:17:31;;;;;;;7.72;5.75;;;;;;;9.27;88.09;100406.84;5091620;28;20028;-67
2021/10/31 08:19:56;;;;;;;7.27;4.90;;;;;;;9.33;88.30;100396.59;5091753;28;20038;-67
2021/10/31 08:22:21;;;;;;;6.47;5.53;;;;;;;9.36;88.15;100396.28;5086281;28;20111;-66
2021/10/31 08:24:47;;;;;;;6.23;5.10;;;;;;;9.43;87.65;100403.47;5075803;28;20028;-70
2021/10/31 08:27:12;;;;;;;6.60;5.50;;;;;;;9.46;87.43;100397.03;5071206;28;20476;-69
2021/10/31 08:29:38;;;;;;;7.13;5.37;;;;;;;9.50;87.29;100393.06;5070692;28;20291;-68
2021/10/31 08:32:04;;;;;;;6.90;5.30;;;;;;;9.60;87.27;100387.63;5071162;28;20023;-68
2021/10/31 08:34:29;;;;;;;6.97;5.03;;;;;;;9.74;87.10;100387.06;5071005;28;20302;-68
2021/10/31 08:36:54;;;;;;;6.55;5.38;;;;;;;9.80;85.94;100372.31;5071112;28;20484;-70
2021/10/31 08:39:20;;;;;;;7.27;5.87;;;;;;;9.88;86.14;100369.69;5070827;28;20060;-69
2021/10/31 08:41:46;;;;;;;6.00;4.88;;;;;;;9.95;86.07;100364.56;5070975;28;20055;-68
2021/10/31 08:44:12;;;;;;;5.82;4.85;;;;;;;9.97;85.60;100358.06;5071035;28;20082;-67
2021/10/31 08:46:37;;;;;;;5.80;4.82;;;;;;;10.05;85.79;100365.28;5070866;28;20468;-68
2021/10/31 08:49:04;;;;;;;7.05;5.47;;;;;;;10.10;85.55;100364.81;5070893;28;20029;-67
2021/10/31 08:51:30;;;;;;;6.75;4.72;;;;;;;10.20;85.64;100368.16;5070796;28;20043;-68
2021/10/31 08:53:56;;;;;;;5.32;4.80;;;;;;;10.26;85.04;100362.19;5070837;28;20024;-66
2021/10/31 08:56:22;;;;;;;;;;;;;;;10.29;85.35;100361.03;5071184;28;20506;-67
2021/10/31 08:58:48;;;;;;;5.60;4.67;;;;;;;10.32;84.69;100363.38;5070728;28;19954;-67
2021/10/31 09:01:15;;;;;;;5.97;4.57;;;;;;;10.38;84.97;100360.09;5070698;28;20062;-67
2021/10/31 09:03:41;;;;;;;5.20;4.68;;;;;;;10.39;84.15;100347.63;5070643;28;20025;-67
2021/10/31 09:06:11;;;;;;;5.28;4.68;;;;;;;10.40;83.14;100339.47;5070802;28;20032;-67
2021/10/31 09:08:38;;;;;;;5.95;4.65;;;;;;;10.49;83.65;100334.16;5079297;23;20056;-68
2021/10/31 09:11:04;;;;;;;4.72;4.25;;;;;;;10.55;83.45;100334.31;5052578;28;20439;-66
2021/10/31 09:13:30;;;;;;;5.57;4.28;;;;;;;10.57;83.65;100327.03;5070654;28;20036;-67
2021/10/31 09:15:55;;;;;;;6.80;4.70;;;;;;;10.62;82.77;100311.38;5070450;28;20625;-69
2021/10/31 09:18:21;;;;;;;5.78;4.07;;;;;;;10.67;82.50;100310.03;5070422;28;20028;-70
2021/10/31 09:20:46;;;;;;;4.75;4.30;;;;;;;10.70;82.39;100305.19;5070418;28;20054;-70
2021/10/31 09:23:12;;;;;;;5.75;4.00;;;;;;;10.69;82.32;100308.88;5070739;28;20108;-70
2021/10/31 09:25:38;;;;;;;5.50;4.18;;;;;;;10.71;82.27;100309.53;5070437;28;20107;-69
2021/10/31 09:28:05;;;;;;;5.05;4.07;;;;;;;10.63;82.92;100302.34;5070649;28;20029;-70
2021/10/31 09:30:33;;;;;;;7.18;3.90;;;;;;;10.67;82.91;100302.03;5070393;28;20103;-71
2021/10/31 09:32:58;;;;;;;4.35;3.90;;;;;;;10.61;82.60;100296.38;5070555;28;20498;-70
2021/10/31 09:35:29;;;;;;;5.07;3.97;;;;;;;10.61;83.30;100295.53;5072113;28;20017;-71
2021/10/31 09:37:58;;;;;;;4.43;4.03;;;;;;;10.56;83.51;100277.38;5074347;28;20063;-69
2021/10/31 09:40:24;;;;;;;4.72;3.95;;;;;;;10.51;83.02;100263.72;5074614;28;20180;-70
2021/10/31 09:42:51;;;;;;;4.05;3.65;;;;;;;10.53;83.26;100266.22;5074628;28;20039;-70
2021/10/31 09:45:20;;;;;;;5.50;4.30;;;;;;;10.52;82.90;100254.75;5074204;28;20020;-70
2021/10/31 09:47:53;;;;;;;5.28;3.63;;;;;;;10.51;83.55;100242.41;5072845;28;20402;-77
2021/10/31 09:50:18;;;;;;;4.85;3.67;;;;;;;10.52;83.13;100238.75;5074437;28;20460;-72
2021/10/31 09:52:44;;;;;;;4.20;3.80;;;;;;;10.58;83.56;100224.75;5074557;28;20058;-70
2021/10/31 09:55:09;;;;;;;5.37;3.80;;;;;;;10.64;82.66;100217.94;5074440;28;20033;-72
2021/10/31 09:57:35;;;;;;;3.75;2.92;;;;;;;10.70;82.42;100219.09;5074319;28;20497;-76
2021/10/31 10:00:01;;;;;;;4.00;3.60;;;;;;;10.74;81.95;100194.63;5074141;28;20112;-75
2021/10/31 10:05:19;;;;;;;3.67;3.38;;;;;;;10.85;82.08;100209.44;5074385;28;20033;-74
2021/10/31 10:07:47;;;;;;;5.28;3.92;;;;;;;10.88;82.36;100210.94;5073484;28;20139;-72
2021/10/31 10:10:14;;;;;;;4.80;3.70;;;;;;;10.94;81.61;100204.94;5074310;28;20464;-73
2021/10/31 10:12:40;;;;;;;9.80;4.30;;;;;;;10.98;81.57;100205.41;5073932;28;20030;-74
2021/10/31 10:15:09;;;;;;;3.88;3.17;;;;;;;11.03;81.59;100216.38;5073857;28;20066;-78
2021/10/31 10:17:48;;;;;;;4.55;3.65;;;;;;;11.03;81.14;100222.56;5073972;28;20028;-74
2021/10/31 10:20:15;;;;;;;4.13;3.35;;;;;;;11.11;81.01;100216.41;5073903;28;20044;-75
2021/10/31 10:22:42;;;;;;;4.35;3.53;;;;;;;11.08;81.04;100206.91;5073916;28;20451;-71
2021/10/31 10:25:07;;;;;;;4.90;3.20;;;;;;;11.10;80.98;100201.38;5073739;28;20017;-75
2021/10/31 10:27:45;;;;;;;4.00;3.10;;;;;;;11.13;80.81;100193.84;5073516;28;20499;-70
2021/10/31 10:30:17;;;;;;;3.78;3.47;;;;;;;11.20;80.44;100183.38;5073898;28;20028;-70
2021/10/31 10:32:54;;;;;;;5.10;3.35;;;;;;;11.15;80.76;100184.84;5073599;28;20069;-70
2021/10/31 10:35:23;;;;;;;3.97;3.03;;;;;;;11.21;80.65;100163.66;5073478;28;20070;-70
2021/10/31 10:37:49;;;;;;;3.53;2.95;;;;;;;11.21;80.12;100153.00;5071948;28;20043;-72
2021/10/31 10:40:26;;;;;;;4.00;3.20;;;;;;;11.22;80.46;100143.19;5073369;28;20513;-73
2021/10/31 10:42:54;;;;;;;3.53;3.22;;;;;;;11.25;80.57;100132.97;5073311;28;20029;-73
2021/10/31 10:45:26;;;;;;;4.72;3.42;;;;;;;11.25;80.43;100132.97;5073274;28;20460;-75
2021/10/31 10:47:58;;;;;;;4.50;2.85;;;;;;;11.30;80.62;100125.28;5072028;28;20464;-73
2021/10/31 10:50:27;;;;;;;3.35;3.05;;;;;;;11.28;80.06;100115.78;5073170;28;20563;-70
2021/10/31 10:52:54;;;;;;;3.40;3.10;;;;;;;11.35;80.33;100106.09;5073011;28;20541;-70
2021/10/31 10:55:22;;;;;;;3.80;2.97;;;;;;;11.30;80.04;100100.47;5073003;28;20024;-70
2021/10/31 10:57:54;;;;;;;3.05;2.75;;;;;;;11.33;79.76;100096.63;5072861;28;20081;-74
2021/10/31 11:00:30;;;;;;;5.90;2.88;;;;;;;11.38;79.85;100097.75;5073147;28;20052;-71
2021/10/31 11:03:05;;;;;;;5.65;2.60;;;;;;;11.36;79.72;100089.09;5072836;28;20099;-71
2021/10/31 11:05:34;;;;;;;2.72;2.30;;;;;;;11.40;79.36;100089.56;5072982;28;20028;-75
2021/10/31 11:08:00;;;;;;;3.22;2.67;;;;;;;11.41;79.63;100096.56;5072485;28;20577;-71
2021/10/31 11:10:30;;;;;;;5.50;2.38;;;;;;;11.48;79.49;100102.88;5072786;28;20017;-75
2021/10/31 11:13:00;;;;;;;4.32;2.58;;;;;;;11.52;79.33;100095.38;5072710;28;20457;-75
2021/10/31 11:15:29;;;;;;;3.05;2.00;;;;;;;11.53;78.81;100107.66;5072557;28;20416;-74
2021/10/31 11:18:00;;;;;;;4.40;2.20;;;;;;;11.52;77.83;100098.84;5072506;28;20020;-72
2021/10/31 11:20:30;;;;;;;2.85;1.80;;;;;;;11.55;78.18;100100.34;5071249;28;20024;-74
2021/10/31 11:22:58;;;;;;;2.70;2.08;;;;;;;11.55;77.80;100092.34;5072777;28;20028;-73
2021/10/31 11:25:27;;;;;;;2.50;1.90;;;;;;;11.59;77.97;100099.78;5072502;28;20028;-77
2021/10/31 11:27:55;;;;;;;2.17;1.83;;;;;;;11.59;77.98;100089.13;5072430;28;20028;-78
2021/10/31 11:30:21;;;;;;;1.83;1.40;;;;;;;11.65;76.56;100090.28;5072588;28;20200;-80
2021/10/31 11:32:48;;;;;;;4.28;1.77;;;;;;;11.67;77.22;100088.25;5072303;28;20035;-78
2021/10/31 11:35:17;;;;;;;2.05;1.50;;;;;;;11.68;77.13;100083.75;5072594;28;20099;-77